Time;durP1;ratioP1;P1;durP2;ratioP2;P2;SDS_P1;SDS_P2;PMS_P1;PMS_P2;Temp;Humidity;BMP_temperature;BMP_pressure;BME280_temperature;BME280_humidity;BME280_pressure;Samples;Min_cycle;Max_cycle;Signal;HPM_P1;HPM_P2
2023/07/11 00:02:04;;;;;;;0.70;0.70;;;;;;;25.69;89.78;100249.34;5051371;28;20199;-71
2023/07/11 00:04:34;;;;;;;0.73;0.73;;;;;;;25.64;89.28;100232.75;5050756;28;20203;-71
2023/07/11 00:07:01;;;;;;;2.13;1.40;;;;;;;25.72;89.32;100253.66;5050600;28;20230;-72
2023/07/11 00:09:28;;;;;;;0.80;0.80;;;;;;;25.50;89.67;100230.69;5050790;28;20214;-71
2023/07/11 00:11:55;;;;;;;0.80;0.80;;;;;;;25.58;90.90;100246.28;5050884;28;20211;-71
2023/07/11 00:14:25;;;;;;;0.75;0.75;;;;;;;25.67;90.06;100256.53;5050614;28;20207;-71
2023/07/11 00:16:52;;;;;;;0.70;0.70;;;;;;;25.50;89.90;100229.81;5051102;28;20227;-71
2023/07/11 00:19:20;;;;;;;0.80;0.80;;;;;;;25.63;89.59;100247.81;5050935;28;20200;-71
2023/07/11 00:21:47;;;;;;;0.68;0.68;;;;;;;25.67;88.34;100248.56;5015930;28;20679;-71
2023/07/11 00:24:14;;;;;;;1.42;1.35;;;;;;;25.76;88.44;100247.25;5050669;28;20290;-71
2023/07/11 00:26:41;;;;;;;0.75;0.75;;;;;;;25.71;89.11;100254.59;5050339;28;20253;-73
2023/07/11 00:29:15;;;;;;;0.82;0.82;;;;;;;25.76;89.61;100257.91;5050877;28;20202;-72
2023/07/11 00:31:42;;;;;;;0.80;0.80;;;;;;;25.67;89.82;100253.88;5031155;28;20204;-71
2023/07/11 00:34:09;;;;;;;0.70;0.70;;;;;;;25.58;90.64;100243.63;4996189;28;20207;-71
2023/07/11 00:36:37;;;;;;;0.65;0.65;;;;;;;25.61;90.40;100238.22;5047510;28;20609;-71
2023/07/11 00:39:05;;;;;;;0.90;0.90;;;;;;;25.62;89.92;100247.88;5050765;28;20670;-71
2023/07/11 00:41:32;;;;;;;0.70;0.70;;;;;;;25.67;89.41;100239.72;5050524;28;20203;-71
2023/07/11 00:43:59;;;;;;;0.77;0.77;;;;;;;25.69;89.32;100246.69;5050766;28;20203;-70
2023/07/11 00:46:26;;;;;;;0.80;0.80;;;;;;;25.80;88.68;100244.41;5050228;28;20195;-71
2023/07/11 00:48:55;;;;;;;0.70;0.70;;;;;;;25.86;87.76;100249.47;5050663;28;20191;-71
2023/07/11 00:51:27;;;;;;;0.75;0.75;;;;;;;25.59;88.23;100202.88;5050349;28;20265;-71
2023/07/11 00:53:55;;;;;;;0.90;0.90;;;;;;;25.71;88.26;100243.97;5050038;28;20230;-72
2023/07/11 00:56:30;;;;;;;0.70;0.70;;;;;;;25.77;88.24;100241.91;5031426;28;20284;-71
2023/07/11 00:58:58;;;;;;;0.60;0.60;;;;;;;25.77;87.87;100239.25;5050100;28;20796;-71
2023/07/11 01:01:26;;;;;;;0.73;0.73;;;;;;;25.61;88.95;100254.16;5050139;28;20210;-72
2023/07/11 01:03:56;;;;;;;0.60;0.60;;;;;;;25.50;87.12;100205.91;5050031;28;20188;-71
2023/07/11 01:06:26;;;;;;;2.17;1.60;;;;;;;25.73;86.59;100229.69;5050155;28;20272;-71
2023/07/11 01:08:56;;;;;;;0.80;0.80;;;;;;;25.73;86.84;100245.63;5052171;28;20199;-71
2023/07/11 01:11:26;;;;;;;0.65;0.65;;;;;;;25.72;86.97;100225.28;5054384;28;20662;-70
2023/07/11 01:13:56;;;;;;;0.85;0.85;;;;;;;25.82;85.67;100229.28;5053522;28;20675;-70
2023/07/11 01:16:22;;;;;;;0.70;0.70;;;;;;;25.64;86.41;100216.81;5052903;28;20207;-71
2023/07/11 01:18:49;;;;;;;0.60;0.60;;;;;;;25.65;85.97;100218.53;5054136;28;20207;-71
2023/07/11 01:21:19;;;;;;;0.70;0.70;;;;;;;25.90;84.23;100213.81;5054316;28;20206;-71
2023/07/11 01:23:46;;;;;;;0.73;0.73;;;;;;;26.01;83.01;100227.50;5053186;28;20195;-71
2023/07/11 01:26:13;;;;;;;0.73;0.73;;;;;;;26.17;81.87;100226.78;5054102;28;20195;-71
2023/07/11 01:28:40;;;;;;;0.70;0.70;;;;;;;26.29;81.08;100231.59;5053548;28;20204;-71
2023/07/11 01:31:08;;;;;;;0.75;0.75;;;;;;;26.31;80.48;100224.38;5018924;28;20204;-71
2023/07/11 01:33:35;;;;;;;0.70;0.70;;;;;;;26.25;80.29;100214.91;5053960;28;20206;-71
2023/07/11 01:36:03;;;;;;;0.60;0.60;;;;;;;26.41;79.34;100220.34;5053782;28;20203;-71
2023/07/11 01:38:31;;;;;;;0.60;0.60;;;;;;;26.40;79.34;100210.63;5053683;28;20318;-71
2023/07/11 01:40:58;;;;;;;1.27;1.15;;;;;;;26.31;79.87;100213.75;5053686;28;20261;-71
2023/07/11 01:43:24;;;;;;;0.60;0.60;;;;;;;26.36;79.09;100206.44;5053990;28;20199;-71
2023/07/11 01:45:51;;;;;;;3.13;0.95;;;;;;;26.36;79.50;100209.09;5053335;28;20238;-71
2023/07/11 01:48:18;;;;;;;0.63;0.63;;;;;;;26.42;78.74;100214.09;5053665;28;20273;-71
2023/07/11 01:50:45;;;;;;;0.70;0.70;;;;;;;26.50;78.34;100198.66;5053387;28;20219;-71
2023/07/11 01:53:11;;;;;;;0.70;0.70;;;;;;;26.47;77.72;100193.47;5053358;28;20207;-71
2023/07/11 01:55:40;;;;;;;0.90;0.90;;;;;;;26.44;78.05;100190.94;5053498;28;20199;-72
2023/07/11 01:58:06;;;;;;;0.75;0.75;;;;;;;26.40;78.51;100189.34;5053555;28;20250;-71
2023/07/11 02:00:33;;;;;;;0.70;0.70;;;;;;;26.22;79.08;100175.16;5034410;28;20278;-71
2023/07/11 02:03:01;;;;;;;0.70;0.70;;;;;;;26.33;78.61;100190.59;5053520;28;20200;-71
2023/07/11 02:05:28;;;;;;;2.05;1.05;;;;;;;26.37;78.12;100200.16;5018339;28;20203;-71
2023/07/11 02:07:55;;;;;;;1.88;1.75;;;;;;;26.20;79.06;100194.78;5053189;28;20214;-71
2023/07/11 02:10:21;;;;;;;0.80;0.80;;;;;;;26.13;79.88;100205.69;5053406;28;20261;-72
2023/07/11 02:12:49;;;;;;;0.70;0.70;;;;;;;26.34;79.05;100214.47;5053433;28;20269;-72
2023/07/11 02:15:16;;;;;;;0.50;0.50;;;;;;;26.39;77.78;100211.59;5052697;28;20523;-72
2023/07/11 02:17:44;;;;;;;0.70;0.70;;;;;;;26.22;78.52;100198.25;5052857;28;20662;-71
2023/07/11 02:20:12;;;;;;;0.70;0.70;;;;;;;26.32;78.25;100211.03;5051865;28;20233;-72
2023/07/11 02:22:39;;;;;;;0.95;0.95;;;;;;;26.27;79.00;100206.84;5052686;28;20211;-72
2023/07/11 02:25:06;;;;;;;0.65;0.65;;;;;;;26.09;78.50;100177.50;5053165;28;20204;-71
2023/07/11 02:27:33;;;;;;;0.70;0.70;;;;;;;26.11;79.59;100196.88;5053150;28;20202;-72
2023/07/11 02:30:01;;;;;;;0.70;0.70;;;;;;;26.01;80.82;100195.59;5052658;28;20200;-72
2023/07/11 02:32:28;;;;;;;0.60;0.60;;;;;;;25.98;80.11;100201.06;5052838;28;20576;-72
2023/07/11 02:34:55;;;;;;;0.60;0.60;;;;;;;26.03;79.93;100196.41;5052678;28;20663;-72
2023/07/11 02:37:22;;;;;;;0.60;0.60;;;;;;;25.98;80.01;100201.06;5052969;28;20618;-72
2023/07/11 02:39:48;;;;;;;0.70;0.70;;;;;;;25.69;81.51;100204.19;5053025;28;20214;-72
2023/07/11 02:42:15;;;;;;;0.70;0.70;;;;;;;25.74;81.28;100210.16;5052904;28;20551;-72
2023/07/11 02:44:42;;;;;;;4.68;1.05;;;;;;;25.73;81.46;100205.78;5051634;28;20608;-72
2023/07/11 02:47:12;;;;;;;0.70;0.70;;;;;;;25.76;82.24;100215.38;5052183;28;20555;-72
2023/07/11 02:49:40;;;;;;;0.73;0.73;;;;;;;25.67;82.55;100206.06;5018169;28;20222;-72
2023/07/11 02:52:08;;;;;;;0.70;0.70;;;;;;;25.64;82.33;100209.72;5052258;28;20639;-72
2023/07/11 02:54:36;;;;;;;0.80;0.80;;;;;;;25.60;81.96;100193.97;5052154;28;20207;-72
2023/07/11 02:57:03;;;;;;;0.75;0.75;;;;;;;25.70;82.99;100216.53;5017431;28;20223;-72
2023/07/11 02:59:30;;;;;;;0.70;0.70;;;;;;;25.76;81.60;100216.25;5051595;28;20253;-73
2023/07/11 03:01:58;;;;;;;0.80;0.80;;;;;;;25.55;81.75;100180.03;5052072;28;20192;-72
2023/07/11 03:04:26;;;;;;;0.80;0.80;;;;;;;25.66;81.86;100209.63;5051929;28;20650;-72
2023/07/11 03:06:56;;;;;;;0.80;0.80;;;;;;;25.65;81.70;100213.22;5051818;28;20207;-72
2023/07/11 03:09:23;;;;;;;0.75;0.75;;;;;;;25.67;81.76;100208.72;5016909;28;20238;-73
2023/07/11 03:11:50;;;;;;;0.80;0.80;;;;;;;25.66;81.70;100201.66;5017203;28;20200;-70
2023/07/11 03:14:18;;;;;;;0.60;0.60;;;;;;;25.52;81.57;100201.41;5051552;28;20287;-70
2023/07/11 03:16:45;;;;;;;0.60;0.60;;;;;;;25.49;82.16;100204.19;5051818;28;20203;-70
2023/07/11 03:19:12;;;;;;;0.70;0.70;;;;;;;25.61;80.51;100206.34;5051568;28;20208;-70
2023/07/11 03:21:40;;;;;;;0.63;0.63;;;;;;;25.37;79.36;100130.38;5051524;28;20199;-71
2023/07/11 03:24:07;;;;;;;4.68;3.72;;;;;;;25.83;78.66;100212.38;5016794;28;20203;-71
2023/07/11 03:26:34;;;;;;;0.70;0.70;;;;;;;25.86;77.75;100212.28;5051469;28;20570;-71
2023/07/11 03:29:00;;;;;;;0.80;0.80;;;;;;;25.93;77.74;100208.41;5051509;28;20199;-71
2023/07/11 03:31:27;;;;;;;0.70;0.70;;;;;;;25.98;77.12;100226.78;5016152;28;20199;-71
2023/07/11 03:33:54;;;;;;;0.80;0.80;;;;;;;26.02;77.01;100223.91;5051656;28;20202;-71
2023/07/11 03:36:21;;;;;;;0.90;0.90;;;;;;;25.96;77.17;100226.00;5051497;28;20214;-71
2023/07/11 03:38:49;;;;;;;0.70;0.70;;;;;;;26.14;76.95;100218.03;5051603;28;20266;-71
2023/07/11 03:41:16;;;;;;;0.70;0.70;;;;;;;26.20;75.83;100221.34;5034514;28;20208;-71
2023/07/11 03:43:43;;;;;;;0.70;0.70;;;;;;;26.00;76.91;100212.50;5049357;28;20651;-71
2023/07/11 03:46:09;;;;;;;0.73;0.73;;;;;;;26.29;75.38;100226.25;5049500;28;20203;-72
2023/07/11 03:48:36;;;;;;;0.70;0.70;;;;;;;26.26;74.40;100205.09;5050659;28;20211;-71
2023/07/11 03:51:03;;;;;;;0.75;0.75;;;;;;;26.35;74.15;100225.97;5050667;28;20207;-71
2023/07/11 03:53:30;;;;;;;0.70;0.70;;;;;;;26.19;74.22;100220.50;5050770;28;20200;-72
2023/07/11 03:55:58;;;;;;;0.90;0.90;;;;;;;26.07;75.64;100216.59;5050222;28;20338;-71
2023/07/11 03:58:25;;;;;;;0.65;0.65;;;;;;;26.14;75.05;100212.72;5013388;28;20266;-71
2023/07/11 04:00:52;;;;;;;0.80;0.80;;;;;;;26.25;73.80;100216.69;5050677;28;20203;-71
2023/07/11 04:03:19;;;;;;;0.60;0.60;;;;;;;25.98;74.38;100211.69;5047882;28;20570;-71
2023/07/11 04:05:46;;;;;;;0.60;0.60;;;;;;;26.08;74.51;100218.31;5051256;28;20654;-70
2023/07/11 04:08:13;;;;;;;1.02;1.02;;;;;;;26.06;74.94;100212.22;5051162;28;20210;-70
2023/07/11 04:10:39;;;;;;;0.70;0.70;;;;;;;26.10;74.18;100216.44;5050913;28;20199;-70
2023/07/11 04:13:08;;;;;;;0.60;0.60;;;;;;;26.33;73.28;100222.50;5050765;28;20222;-71
2023/07/11 04:15:34;;;;;;;0.80;0.80;;;;;;;26.31;72.22;100193.34;5050603;28;20678;-71
2023/07/11 04:18:01;;;;;;;0.70;0.70;;;;;;;27.10;69.26;100208.06;5050814;28;20234;-71
2023/07/11 04:20:28;;;;;;;1.25;1.25;;;;;;;27.73;65.51;100221.66;5050675;28;20751;-71
2023/07/11 04:22:55;;;;;;;0.60;0.60;;;;;;;28.33;61.82;100225.50;5051003;28;20244;-72
2023/07/11 04:25:22;;;;;;;0.70;0.70;;;;;;;27.86;62.47;100222.75;5050301;28;20599;-71
2023/07/11 04:27:48;;;;;;;0.70;0.70;;;;;;;27.48;64.92;100217.63;5050843;28;20636;-70
2023/07/11 04:30:17;;;;;;;0.80;0.80;;;;;;;27.43;65.66;100208.16;5050347;28;20561;-69
2023/07/11 04:32:43;;;;;;;0.70;0.70;;;;;;;28.11;61.75;100216.97;5050540;28;20203;-71
2023/07/11 04:35:14;;;;;;;0.60;0.60;;;;;;;28.10;59.96;100144.13;5046708;28;20210;-71
2023/07/11 04:37:41;;;;;;;0.70;0.70;;;;;;;28.60;58.40;100173.25;5015486;28;20334;-69
2023/07/11 04:40:10;;;;;;;0.60;0.60;;;;;;;29.42;55.86;100221.84;5050161;28;20264;-70
2023/07/11 04:42:36;;;;;;;0.85;0.85;;;;;;;29.72;54.91;100233.31;5049696;28;20424;-70
2023/07/11 04:45:04;;;;;;;0.70;0.70;;;;;;;29.95;53.79;100226.59;5049698;28;20999;-69
2023/07/11 04:47:32;;;;;;;0.60;0.60;;;;;;;30.11;53.60;100243.38;5047848;28;20695;-70
2023/07/11 04:49:59;;;;;;;1.30;1.30;;;;;;;29.22;54.78;100163.34;5049605;28;20202;-69
2023/07/11 04:52:26;;;;;;;0.60;0.60;;;;;;;30.22;53.83;100245.38;5014869;28;20209;-69
2023/07/11 04:54:53;;;;;;;0.70;0.70;;;;;;;31.02;52.50;100247.34;5050181;28;20219;-70
2023/07/11 04:57:20;;;;;;;0.60;0.60;;;;;;;30.79;50.97;100217.53;5040641;28;20586;-70
2023/07/11 04:59:47;;;;;;;0.60;0.60;;;;;;;30.54;51.31;100244.22;5033696;28;20207;-70
2023/07/11 05:02:14;;;;;;;0.70;0.70;;;;;;;30.75;52.16;100248.16;5012045;28;20265;-70
2023/07/11 05:04:42;;;;;;;0.70;0.70;;;;;;;31.11;50.78;100241.38;5030420;28;20204;-71
2023/07/11 05:07:09;;;;;;;1.23;1.23;;;;;;;31.28;50.54;100238.41;5030357;28;20207;-70
2023/07/11 05:09:37;;;;;;;1.00;1.00;;;;;;;31.15;50.91;100240.19;5030427;28;20207;-70
2023/07/11 05:12:05;;;;;;;0.63;0.63;;;;;;;31.45;50.16;100236.28;5006761;28;20750;-71
2023/07/11 05:14:32;;;;;;;0.50;0.50;;;;;;;31.31;49.84;100235.53;4998231;28;20207;-71
2023/07/11 05:16:59;;;;;;;0.60;0.60;;;;;;;30.53;51.80;100237.16;5030360;28;20647;-72
2023/07/11 05:19:26;;;;;;;1.50;1.50;;;;;;;30.31;51.81;100224.25;5045770;28;20230;-71
2023/07/11 05:21:54;;;;;;;0.80;0.80;;;;;;;30.72;51.44;100231.44;5050202;28;20214;-72
2023/07/11 05:24:21;;;;;;;0.45;0.45;;;;;;;31.03;51.30;100227.63;5050171;28;20214;-72
2023/07/11 05:26:47;;;;;;;0.50;0.50;;;;;;;31.21;50.21;100216.53;5014878;28;20210;-81
2023/07/11 05:29:14;;;;;;;0.60;0.60;;;;;;;31.25;49.87;100246.66;5050354;28;20615;-79
2023/07/11 05:31:41;;;;;;;0.60;0.60;;;;;;;31.58;49.14;100228.28;5000100;28;20221;-80
2023/07/11 05:34:07;;;;;;;0.88;0.88;;;;;;;31.66;48.86;100244.72;5039899;28;20247;-78
2023/07/11 05:36:36;;;;;;;0.60;0.60;;;;;;;31.95;48.28;100242.66;5044430;28;20225;-72
2023/07/11 05:39:06;;;;;;;0.60;0.60;;;;;;;31.85;49.29;100242.47;5049286;28;20226;-70
2023/07/11 05:41:35;;;;;;;0.60;0.60;;;;;;;31.57;49.51;100242.66;5030791;28;20211;-70
2023/07/11 05:44:03;;;;;;;0.88;0.88;;;;;;;31.61;49.45;100230.75;5030355;28;20238;-69
2023/07/11 05:46:30;;;;;;;0.60;0.60;;;;;;;31.53;49.30;100232.25;5029949;28;20542;-70
2023/07/11 05:48:58;;;;;;;0.70;0.70;;;;;;;30.94;50.44;100232.59;5029975;28;20671;-70
2023/07/11 05:51:25;;;;;;;0.73;0.73;;;;;;;31.19;52.28;100213.09;5029878;28;20203;-71
2023/07/11 05:53:52;;;;;;;0.80;0.80;;;;;;;31.51;50.17;100240.38;5030114;28;20222;-70
2023/07/11 05:56:21;;;;;;;0.80;0.80;;;;;;;31.39;49.99;100246.59;5032159;28;20219;-71
2023/07/11 05:58:49;;;;;;;0.60;0.60;;;;;;;31.00;50.88;100219.81;5033221;28;20300;-70
2023/07/11 06:01:18;;;;;;;1.23;1.15;;;;;;;30.74;52.23;100227.72;5033333;28;20207;-70
2023/07/11 06:03:45;;;;;;;0.70;0.70;;;;;;;30.58;52.25;100243.06;5033276;28;20200;-70
2023/07/11 06:06:13;;;;;;;0.60;0.60;;;;;;;30.37;53.95;100218.50;5033386;28;20195;-70
2023/07/11 06:08:40;;;;;;;0.75;0.75;;;;;;;30.39;53.45;100232.63;5033312;28;20195;-70
2023/07/11 06:11:07;;;;;;;0.50;0.50;;;;;;;30.63;53.29;100240.94;5033168;28;20195;-71
2023/07/11 06:13:37;;;;;;;0.70;0.70;;;;;;;31.23;52.16;100238.72;5033318;28;20200;-68
2023/07/11 06:16:07;;;;;;;0.60;0.60;;;;;;;31.27;53.04;100242.06;5033368;28;20261;-70
2023/07/11 06:18:35;;;;;;;0.70;0.70;;;;;;;31.10;53.74;100243.19;5033083;28;20276;-70
2023/07/11 06:21:02;;;;;;;0.70;0.70;;;;;;;31.19;52.78;100242.56;5033054;28;20295;-70
2023/07/11 06:23:29;;;;;;;0.82;0.82;;;;;;;30.84;54.46;100234.19;5032990;28;20196;-70
2023/07/11 06:25:56;;;;;;;0.60;0.60;;;;;;;31.05;53.38;100257.84;5032938;28;20204;-70
2023/07/11 06:28:23;;;;;;;0.70;0.70;;;;;;;30.70;52.71;100252.97;5032807;28;20214;-70
2023/07/11 06:30:51;;;;;;;0.70;0.70;;;;;;;30.45;53.45;100253.72;4998224;28;20223;-70
2023/07/11 06:33:19;;;;;;;0.82;0.82;;;;;;;30.40;53.47;100249.56;5032809;28;20203;-69
2023/07/11 06:35:49;;;;;;;0.70;0.70;;;;;;;30.33;52.96;100254.44;5032732;28;20257;-69
2023/07/11 06:38:16;;;;;;;0.80;0.80;;;;;;;29.97;54.63;100256.75;5032891;28;20310;-69
2023/07/11 06:40:48;;;;;;;0.60;0.60;;;;;;;30.23;53.45;100236.41;5032478;28;20215;-70
2023/07/11 06:43:15;;;;;;;0.60;0.60;;;;;;;30.42;53.53;100258.41;5032569;28;20658;-69
2023/07/11 06:45:42;;;;;;;0.70;0.70;;;;;;;30.42;53.10;100247.69;5032562;28;20266;-70
2023/07/11 06:48:10;;;;;;;0.60;0.60;;;;;;;29.95;53.50;100238.16;5032735;28;20204;-70
2023/07/11 06:50:36;;;;;;;0.80;0.80;;;;;;;29.84;55.64;100245.97;5032532;28;20262;-70
2023/07/11 06:53:03;;;;;;;1.08;1.08;;;;;;;30.13;54.78;100249.50;5032471;28;20199;-70
2023/07/11 06:55:30;;;;;;;0.50;0.50;;;;;;;30.05;55.02;100250.94;5032517;28;20208;-69
2023/07/11 06:57:57;;;;;;;0.52;0.52;;;;;;;30.30;53.97;100251.09;5013642;28;20323;-70
2023/07/11 07:00:25;;;;;;;0.68;0.68;;;;;;;30.06;54.64;100239.28;5032368;28;20199;-70
2023/07/11 07:02:52;;;;;;;0.47;0.47;;;;;;;30.01;54.50;100231.53;5032174;28;20202;-70
2023/07/11 07:05:20;;;;;;;11.27;1.60;;;;;;;30.18;54.70;100233.19;5031961;28;20269;-69
2023/07/11 07:07:46;;;;;;;0.80;0.80;;;;;;;30.46;54.38;100233.16;5031582;28;20277;-70
2023/07/11 07:10:13;;;;;;;0.70;0.70;;;;;;;30.38;53.49;100235.44;5032172;28;20258;-69
2023/07/11 07:12:40;;;;;;;0.70;0.70;;;;;;;30.47;55.02;100238.41;5032263;28;20208;-70
2023/07/11 07:15:08;;;;;;;0.50;0.50;;;;;;;30.73;53.86;100227.81;5032051;28;20598;-68
2023/07/11 07:17:35;;;;;;;0.70;0.70;;;;;;;31.02;54.84;100231.25;5031940;28;20196;-69
2023/07/11 07:20:01;;;;;;;0.70;0.70;;;;;;;31.23;54.27;100235.19;5031815;28;20231;-69
2023/07/11 07:22:30;;;;;;;0.60;0.60;;;;;;;31.21;53.43;100232.63;5031699;28;20208;-69
2023/07/11 07:24:56;;;;;;;0.85;0.85;;;;;;;30.83;53.03;100211.03;5031806;28;20700;-69
2023/07/11 07:27:23;;;;;;;0.73;0.73;;;;;;;31.21;52.52;100237.13;5031768;28;20272;-68
2023/07/11 07:29:51;;;;;;;0.60;0.60;;;;;;;30.86;51.70;100248.31;5013381;28;20654;-69
2023/07/11 07:32:18;;;;;;;0.70;0.70;;;;;;;31.16;52.29;100239.22;5031209;28;20291;-69
2023/07/11 07:34:45;;;;;;;0.60;0.60;;;;;;;30.84;51.60;100223.47;5031329;28;20199;-69
2023/07/11 07:37:13;;;;;;;0.80;0.80;;;;;;;30.88;51.97;100232.16;4996554;28;20203;-68
2023/07/11 07:39:41;;;;;;;0.60;0.60;;;;;;;31.15;51.82;100232.16;5031344;28;20547;-73
2023/07/11 07:42:08;;;;;;;0.70;0.70;;;;;;;31.08;50.52;100230.84;5031111;28;20231;-68
2023/07/11 07:44:35;;;;;;;0.70;0.70;;;;;;;31.06;50.08;100227.44;5031497;28;20253;-70
2023/07/11 07:47:02;;;;;;;0.60;0.60;;;;;;;31.05;50.64;100233.75;5031316;28;20272;-67
2023/07/11 07:49:28;;;;;;;0.60;0.60;;;;;;;31.04;50.33;100224.00;5031155;28;20277;-67
2023/07/11 07:51:55;;;;;;;0.77;0.77;;;;;;;30.72;50.00;100127.88;5034261;28;20191;-67
2023/07/11 07:54:22;;;;;;;0.70;0.70;;;;;;;31.33;49.84;100230.91;5048603;28;20621;-69
2023/07/11 07:56:50;;;;;;;0.70;0.70;;;;;;;31.62;49.56;100229.78;5030999;28;20748;-69
2023/07/11 07:59:17;;;;;;;0.70;0.70;;;;;;;31.38;49.79;100235.00;5031021;28;20607;-71
2023/07/11 08:01:45;;;;;;;0.70;0.70;;;;;;;31.36;50.09;100201.19;5031050;28;20698;-68
2023/07/11 08:04:11;;;;;;;0.70;0.70;;;;;;;31.73;49.41;100231.72;4996040;28;20207;-72
2023/07/11 08:06:38;;;;;;;0.70;0.70;;;;;;;31.95;49.06;100232.78;5031151;28;20198;-68
2023/07/11 08:09:05;;;;;;;0.63;0.63;;;;;;;31.84;48.88;100227.34;5030837;28;20273;-67
2023/07/11 08:11:32;;;;;;;0.52;0.52;;;;;;;32.10;48.97;100221.97;5030951;28;20200;-68
2023/07/11 08:14:00;;;;;;;0.80;0.80;;;;;;;31.91;47.65;100227.75;5030789;28;20218;-68
2023/07/11 08:16:27;;;;;;;0.70;0.70;;;;;;;31.98;48.20;100233.53;5030601;28;20204;-68
2023/07/11 08:18:54;;;;;;;0.68;0.68;;;;;;;31.85;47.63;100196.88;5030565;28;20231;-69
2023/07/11 08:21:21;;;;;;;1.15;1.15;;;;;;;31.91;47.59;100223.25;5044437;28;20207;-69
2023/07/11 08:23:48;;;;;;;0.80;0.80;;;;;;;31.77;47.89;100231.41;5050505;28;20203;-69
2023/07/11 08:26:14;;;;;;;0.75;0.75;;;;;;;31.26;48.30;100159.94;5032000;28;20194;-69
2023/07/11 08:28:42;;;;;;;0.75;0.75;;;;;;;31.73;48.65;100219.19;5050515;28;20264;-69
2023/07/11 08:31:10;;;;;;;0.70;0.70;;;;;;;31.95;48.13;100221.19;5050557;28;20226;-69
2023/07/11 08:33:37;;;;;;;0.70;0.70;;;;;;;31.86;48.73;100220.03;5050452;28;20662;-69
2023/07/11 08:36:04;;;;;;;0.60;0.60;;;;;;;31.66;48.92;100152.66;5050505;28;20199;-69
2023/07/11 08:38:31;;;;;;;0.63;0.63;;;;;;;32.20;48.33;100223.00;5050304;28;20202;-69
2023/07/11 08:40:57;;;;;;;0.75;0.75;;;;;;;32.22;48.35;100231.81;5050594;28;20199;-69
2023/07/11 08:43:29;;;;;;;0.60;0.60;;;;;;;32.19;48.55;100194.44;5050257;28;20199;-69
2023/07/11 08:46:00;;;;;;;0.80;0.80;;;;;;;32.59;48.45;100228.19;5050359;28;20203;-69
2023/07/11 08:48:33;;;;;;;0.60;0.60;;;;;;;32.68;47.03;100229.31;5050374;28;20199;-69
2023/07/11 08:51:13;;;;;;;0.70;0.70;;;;;;;32.55;47.38;100226.66;5050484;28;20210;-69
2023/07/11 08:53:46;;;;;;;0.95;0.95;;;;;;;32.71;47.42;100219.22;5050289;28;20199;-69
2023/07/11 08:56:18;;;;;;;0.60;0.60;;;;;;;32.76;47.22;100203.63;5050074;28;20195;-69
2023/07/11 08:58:48;;;;;;;0.60;0.60;;;;;;;32.57;48.60;100211.28;5015309;28;20736;-70
2023/07/11 09:01:33;;;;;;;0.70;0.70;;;;;;;32.81;48.09;100209.53;5031543;28;20198;-70
2023/07/11 09:04:03;;;;;;;0.70;0.70;;;;;;;32.72;46.79;100207.50;5049974;28;20199;-70
2023/07/11 09:06:37;;;;;;;0.60;0.60;;;;;;;32.44;47.77;100178.28;5050197;28;20219;-71
2023/07/11 09:09:04;;;;;;;0.60;0.60;;;;;;;32.62;46.99;100203.78;5031587;28;20226;-70
2023/07/11 09:11:40;;;;;;;0.80;0.80;;;;;;;32.69;47.25;100198.81;5047374;28;20202;-71
2023/07/11 09:14:17;;;;;;;0.70;0.70;;;;;;;32.83;47.16;100194.13;5013289;28;20214;-69
2023/07/11 09:16:50;;;;;;;0.80;0.80;;;;;;;33.00;47.08;100192.00;5046295;28;20195;-70
2023/07/11 09:19:31;;;;;;;0.70;0.70;;;;;;;32.92;44.54;100185.38;5049401;28;20230;-71
2023/07/11 09:22:08;;;;;;;1.38;1.27;;;;;;;32.57;46.45;100160.25;5049786;28;20210;-70
2023/07/11 09:24:43;;;;;;;0.65;0.65;;;;;;;32.93;45.36;100180.84;5049651;28;20202;-70
2023/07/11 09:27:26;;;;;;;0.70;0.70;;;;;;;32.86;45.42;100158.97;5049583;28;20206;-69
2023/07/11 09:29:55;;;;;;;0.60;0.60;;;;;;;33.08;46.41;100186.88;5051119;28;20205;-70
2023/07/11 09:32:28;;;;;;;0.70;0.70;;;;;;;33.00;46.93;100154.41;5053439;28;20673;-71
2023/07/11 09:34:56;;;;;;;0.52;0.52;;;;;;;33.47;46.31;100186.53;5005499;28;20195;-70
2023/07/11 09:37:31;;;;;;;0.60;0.60;;;;;;;33.48;46.07;100182.88;5046623;28;20207;-72
2023/07/11 09:40:05;;;;;;;0.68;0.68;;;;;;;33.42;45.63;100188.75;5039846;28;20218;-70
2023/07/11 09:42:42;;;;;;;0.88;0.88;;;;;;;33.53;44.72;100188.75;5053487;28;20203;-68
2023/07/11 09:45:11;;;;;;;0.70;0.70;;;;;;;33.36;45.08;100189.19;5040861;28;20491;-68
2023/07/11 09:47:40;;;;;;;0.60;0.60;;;;;;;33.50;44.79;100185.44;5053307;28;20229;-68
2023/07/11 09:50:32;;;;;;;0.60;0.60;;;;;;;33.24;45.00;100166.81;5043194;28;20208;-68
2023/07/11 09:53:02;;;;;;;0.65;0.65;;;;;;;33.45;46.00;100163.44;5051431;28;20199;-68
2023/07/11 09:55:34;;;;;;;0.80;0.80;;;;;;;33.63;45.82;100165.56;5053054;28;20230;-69
2023/07/11 09:58:01;;;;;;;0.70;0.70;;;;;;;34.05;45.50;100181.94;5051154;28;20230;-69
2023/07/11 10:00:28;;;;;;;0.70;0.70;;;;;;;33.66;45.56;100173.38;5052539;28;20218;-68
2023/07/11 10:02:58;;;;;;;0.70;0.70;;;;;;;33.91;45.01;100184.88;5052627;28;20654;-71
2023/07/11 10:05:27;;;;;;;0.70;0.70;;;;;;;33.43;44.73;100108.94;5052395;28;20580;-71
2023/07/11 10:08:01;;;;;;;0.70;0.70;;;;;;;33.95;46.41;100180.97;5052603;28;20199;-69
2023/07/11 10:10:27;;;;;;;0.70;0.70;;;;;;;33.92;45.76;100181.22;5017473;28;20575;-69
2023/07/11 10:12:54;;;;;;;0.70;0.70;;;;;;;33.78;45.39;100175.09;5052456;28;20675;-68
2023/07/11 10:15:27;;;;;;;0.75;0.75;;;;;;;33.56;45.78;100155.38;5052677;28;20280;-68
2023/07/11 10:17:56;;;;;;;0.70;0.70;;;;;;;33.79;46.98;100163.34;5053008;28;20195;-68
2023/07/11 10:20:25;;;;;;;0.70;0.70;;;;;;;33.56;45.72;100148.16;5052559;28;20269;-68
2023/07/11 10:23:01;;;;;;;0.68;0.68;;;;;;;33.81;45.34;100174.00;5052663;28;20213;-69
2023/07/11 10:25:31;;;;;;;0.80;0.80;;;;;;;33.75;45.85;100161.88;5052924;28;20201;-69
2023/07/11 10:28:01;;;;;;;0.70;0.70;;;;;;;33.64;46.09;100161.06;5052701;28;20631;-69
2023/07/11 10:30:32;;;;;;;0.70;0.70;;;;;;;33.67;45.65;100136.59;5052614;28;20191;-70
2023/07/11 10:33:04;;;;;;;0.60;0.60;;;;;;;34.02;45.74;100152.56;5052643;28;20206;-69
2023/07/11 10:35:31;;;;;;;0.70;0.70;;;;;;;34.10;45.50;100147.44;5052443;28;20693;-70
2023/07/11 10:38:02;;;;;;;0.70;0.70;;;;;;;34.17;44.84;100121.75;5052535;28;20203;-71
2023/07/11 10:40:31;;;;;;;0.70;0.70;;;;;;;34.29;45.30;100145.81;5052095;28;20332;-70
2023/07/11 10:43:06;;;;;;;0.70;0.70;;;;;;;34.54;45.13;100120.41;5046597;28;20206;-69
2023/07/11 10:45:39;;;;;;;0.70;0.70;;;;;;;34.91;45.16;100128.09;5005393;28;20195;-71
2023/07/11 10:48:21;;;;;;;1.58;1.27;;;;;;;34.82;45.23;100135.97;5045204;28;20214;-76
2023/07/11 10:50:53;;;;;;;0.60;0.60;;;;;;;34.95;44.87;100129.56;5054046;28;20198;-75
2023/07/11 10:53:25;;;;;;;0.68;0.68;;;;;;;34.97;45.19;100133.81;5052465;28;20210;-74
2023/07/11 10:56:00;;;;;;;0.70;0.70;;;;;;;34.88;44.67;100139.16;5017870;28;20206;-76
2023/07/11 10:58:26;;;;;;;0.80;0.80;;;;;;;34.47;44.48;100137.19;5017058;28;20582;-75
2023/07/11 11:01:02;;;;;;;0.70;0.70;;;;;;;34.40;45.12;100128.78;5052364;28;20227;-75
2023/07/11 11:03:38;;;;;;;0.80;0.80;;;;;;;34.20;44.62;100121.50;5052635;28;20298;-75
2023/07/11 11:06:29;;;;;;;0.70;0.70;;;;;;;34.37;45.18;100115.56;5052072;28;20198;-75
2023/07/11 11:09:04;;;;;;;0.70;0.70;;;;;;;34.45;45.53;100113.09;5049716;28;20195;-77
2023/07/11 11:11:44;;;;;;;0.77;0.77;;;;;;;34.63;44.94;100119.69;5051904;28;20226;-78
2023/07/11 11:14:15;;;;;;;0.80;0.80;;;;;;;34.59;45.22;100117.31;5052543;28;20199;-71
2023/07/11 11:16:56;;;;;;;0.60;0.60;;;;;;;34.57;45.23;100092.38;5049700;28;20282;-72
2023/07/11 11:19:33;;;;;;;0.60;0.60;;;;;;;34.81;43.52;100107.34;5049896;28;20206;-72
2023/07/11 11:22:08;;;;;;;0.60;0.60;;;;;;;35.00;44.26;100109.28;5016708;28;20203;-70
2023/07/11 11:24:48;;;;;;;0.70;0.70;;;;;;;34.97;43.61;100106.88;5049049;28;20229;-70
2023/07/11 11:27:42;;;;;;;0.70;0.70;;;;;;;34.74;43.72;100100.78;5049081;28;20634;-70
2023/07/11 11:30:21;;;;;;;0.60;0.60;;;;;;;35.02;42.93;100093.00;5050548;28;20205;-70
2023/07/11 11:32:55;;;;;;;0.90;0.90;;;;;;;35.19;43.44;100082.50;5051231;28;20199;-70